createdAt,value
2023-03-23T15:59:56.628Z,99919.75
2023-03-23T16:03:02.204Z,99924.50
2023-03-23T16:06:12.018Z,99915.25
2023-03-23T16:09:20.949Z,99916.34
2023-03-23T16:12:25.008Z,99926.34
2023-03-23T16:15:27.850Z,99918.88
2023-03-23T16:18:32.633Z,99927.72
2023-03-23T16:21:35.740Z,99929.59
2023-03-23T16:24:38.870Z,99932.63
2023-03-23T16:27:42.438Z,99929.00
2023-03-23T16:30:46.694Z,99929.84
2023-03-23T16:33:49.582Z,99932.91
2023-03-23T16:36:53.074Z,99938.66
2023-03-23T16:39:55.917Z,99939.56
2023-03-23T16:43:00.666Z,99939.09
2023-03-23T16:46:03.553Z,99936.75
2023-03-23T16:49:06.713Z,99945.03
2023-03-23T16:52:10.230Z,99934.63
2023-03-23T16:55:13.582Z,99931.38
2023-03-23T16:58:18.231Z,99935.16
2023-03-23T17:01:21.321Z,99946.81
2023-03-23T17:04:26.244Z,99938.41
2023-03-23T17:07:29.310Z,99945.81
2023-03-23T17:10:32.556Z,99943.59
2023-03-23T17:13:35.781Z,99949.91
2023-03-23T17:16:40.347Z,99949.09
2023-03-23T17:19:43.406Z,99947.34
2023-03-23T17:22:47.257Z,99953.91
2023-03-23T17:25:50.697Z,99951.38
2023-03-23T17:28:54.665Z,99954.50
2023-03-23T17:31:57.671Z,99964.75
2023-03-23T17:35:00.965Z,99966.44
2023-03-23T17:38:04.679Z,99952.69
2023-03-23T17:41:08.381Z,99967.69
2023-03-23T17:44:11.356Z,99961.97
2023-03-23T17:47:15.911Z,99960.78
2023-03-23T17:50:19.997Z,99960.69
2023-03-23T17:53:22.811Z,99967.53
2023-03-23T17:56:26.006Z,99968.59
2023-03-23T17:59:29.778Z,99970.69
2023-03-23T18:02:32.897Z,99987.69
2023-03-23T18:05:39.848Z,99985.25
2023-03-23T18:08:42.815Z,99985.69
2023-03-23T18:11:46.683Z,99989.56
2023-03-23T18:14:50.249Z,99992.00
2023-03-23T18:17:54.557Z,99995.47
2023-03-23T18:21:02.093Z,99998.91
2023-03-23T18:24:09.300Z,100007.44
2023-03-23T18:27:12.186Z,100001.06
2023-03-23T18:30:15.868Z,100007.34
2023-03-23T18:33:20.553Z,100006.53
2023-03-23T18:36:26.576Z,99999.16
2023-03-23T18:39:32.014Z,100001.12
2023-03-23T18:42:35.247Z,99996.41
2023-03-23T18:45:38.580Z,99996.97
2023-03-23T18:48:42.133Z,99997.94
2023-03-23T18:51:45.068Z,99996.72
2023-03-23T18:54:48.511Z,99994.66
2023-03-23T18:57:51.730Z,99997.00
2023-03-23T19:00:57.501Z,100003.47
2023-03-23T19:04:00.966Z,100007.03
2023-03-23T19:07:13.376Z,100015.75
2023-03-23T19:10:17.583Z,100013.41
2023-03-23T19:13:21.019Z,100012.06
2023-03-23T19:16:25.159Z,100011.16
2023-03-23T19:19:28.556Z,100012.66
2023-03-23T19:22:33.084Z,100010.59
2023-03-23T19:25:36.742Z,100007.03
2023-03-23T19:31:47.813Z,100003.25
2023-03-23T19:34:51.398Z,99997.81
2023-03-23T19:38:00.864Z,99987.97
2023-03-23T19:41:05.815Z,99989.47
2023-03-23T19:44:09.312Z,99988.09
2023-03-23T19:47:12.732Z,99995.84
2023-03-23T19:50:17.270Z,100001.66
2023-03-23T19:53:20.809Z,99995.13
2023-03-23T19:56:25.396Z,99996.88
2023-03-23T19:59:29.000Z,100000.16
2023-03-23T20:02:32.241Z,99992.84
2023-03-23T20:05:36.322Z,99987.31
2023-03-23T20:08:45.445Z,99976.31
2023-03-23T20:11:50.219Z,99989.03
2023-03-23T20:14:53.536Z,99996.38
2023-03-23T20:18:01.152Z,99996.38
2023-03-23T20:21:09.874Z,100005.44
2023-03-23T20:24:13.290Z,100008.16
2023-03-23T20:27:17.485Z,100003.59
2023-03-23T20:30:20.675Z,100003.06
2023-03-23T20:33:23.885Z,99995.22
2023-03-23T20:36:30.083Z,99996.13
2023-03-23T20:39:33.693Z,99994.19
2023-03-23T20:42:36.677Z,100003.63
2023-03-23T20:45:39.877Z,100012.91
2023-03-23T20:48:43.006Z,100014.09
2023-03-23T20:51:46.756Z,100019.69
2023-03-23T20:54:51.206Z,100026.50
2023-03-23T20:58:01.246Z,100030.66
2023-03-23T21:01:05.752Z,100040.09
2023-03-23T21:04:15.608Z,100029.31
2023-03-23T21:07:23.337Z,100030.94
2023-03-23T21:10:28.036Z,100024.22
2023-03-23T21:13:31.733Z,100040.87
2023-03-23T21:16:35.173Z,100033.81
2023-03-23T21:19:38.494Z,100022.19
2023-03-23T21:22:42.116Z,100025.62
2023-03-23T21:25:45.730Z,100017.09
2023-03-23T21:28:50.976Z,100025.16
2023-03-23T21:32:05.259Z,100026.50
2023-03-23T21:35:12.218Z,100021.09
2023-03-23T21:38:15.191Z,100023.59
2023-03-23T21:41:18.089Z,100028.25
2023-03-23T21:44:27.039Z,100021.50
2023-03-23T21:47:32.871Z,100025.16
2023-03-23T21:50:37.882Z,100020.22
2023-03-23T21:53:42.374Z,100033.03
2023-03-23T21:56:45.192Z,100032.09
2023-03-23T21:59:50.910Z,100033.75
2023-03-23T22:02:53.975Z,100029.00
2023-03-23T22:05:56.961Z,100023.72
2023-03-23T22:12:10.136Z,100031.13
2023-03-23T22:15:16.565Z,100031.28
2023-03-23T22:18:19.311Z,100026.38
2023-03-23T22:21:23.339Z,100029.81
2023-03-23T22:24:26.461Z,100023.59
2023-03-23T22:27:29.064Z,100024.41
2023-03-23T22:30:33.345Z,100023.94
2023-03-23T22:33:37.120Z,100027.88
2023-03-23T22:36:41.376Z,100018.81
2023-03-23T22:39:44.657Z,100018.00
2023-03-23T22:42:47.427Z,100012.56
2023-03-23T22:45:54.225Z,100006.19
2023-03-23T22:48:57.091Z,100009.47
2023-03-23T22:52:00.153Z,99996.16
2023-03-23T22:55:04.825Z,99995.66
2023-03-23T22:58:07.721Z,99988.44
2023-03-23T23:01:14.022Z,99996.81
2023-03-23T23:04:17.806Z,99986.31
2023-03-23T23:07:21.729Z,99988.13
2023-03-23T23:10:24.290Z,99983.81
2023-03-23T23:13:27.817Z,99986.59
2023-03-23T23:16:31.291Z,99976.25
2023-03-23T23:19:34.016Z,99977.22
2023-03-23T23:22:36.817Z,99975.59
2023-03-23T23:25:39.644Z,99971.63
2023-03-23T23:28:42.717Z,99973.59
2023-03-23T23:31:47.624Z,99975.22
2023-03-23T23:34:53.188Z,99979.47
2023-03-23T23:37:55.932Z,99979.78
2023-03-23T23:40:58.726Z,99977.81
2023-03-23T23:44:01.860Z,99968.31
2023-03-23T23:47:06.164Z,99968.00
2023-03-23T23:50:11.773Z,99974.75
